Dunkirk, Ohio
Current Conditions -  °F | °C
As of 3:53 AM on Friday 31 Oct 2014 (Local Time) from KFDY Reporting Station
Overcast Overcast  
Wind Chill: 40°   Ceiling: 4500
Heat Index: 44°   Visibility: 10mi
Dew Point: 36°   Wind: 7mph
Humidity: 73%   Direction: 210°SSW
Pressure: 29.98"   Gusts: NA
Location:  40.79°N, 83.64°W
Report Text: KFDY 310753Z AUTO 21006KT 10SM BKN045 OVC055 07/02 A2998 RMK AO2 SLP150 T00670022
Loading
Personal Weather Stations






























Interactive Weather Map
Tropical Storm Tracking
New forecast layout! Learn more

10-Day Weather Forecast

Advertisements
Track Severe Weather on mobile